Time;durP1;ratioP1;P1;durP2;ratioP2;P2;SDS_P1;SDS_P2;PMS_P1;PMS_P2;Temp;Humidity;BMP_temperature;BMP_pressure;BME280_temperature;BME280_humidity;BME280_pressure;Samples;Min_cycle;Max_cycle;Signal;HPM_P1;HPM_P2
2022/04/30 00:00:43;;;;;;;16.50;10.65;;;8.00;99.90;;;;;;4989886;28;20437;-78
2022/04/30 00:03:09;;;;;;;18.42;10.88;;;8.00;99.90;;;;;;5007365;28;20412;-78
2022/04/30 00:05:35;;;;;;;17.97;10.77;;;8.00;99.90;;;;;;5006358;28;20420;-78
2022/04/30 00:08:03;;;;;;;17.03;11.00;;;8.00;99.90;;;;;;4990607;28;20420;-78
2022/04/30 00:10:29;;;;;;;14.33;10.77;;;8.00;99.90;;;;;;5090246;28;20763;-78
2022/04/30 00:12:55;;;;;;;16.45;10.60;;;8.00;99.90;;;;;;5088819;28;20414;-78
2022/04/30 00:15:21;;;;;;;16.95;10.35;;;7.90;99.90;;;;;;5072486;28;20401;-78
2022/04/30 00:17:47;;;;;;;14.20;10.33;;;7.90;99.90;;;;;;5088972;28;20402;-78
2022/04/30 00:20:12;;;;;;;14.77;10.90;;;7.90;99.90;;;;;;5090148;28;20498;-78
2022/04/30 00:22:38;;;;;;;18.70;10.93;;;7.90;99.90;;;;;;5089484;28;20927;-77
2022/04/30 00:25:05;;;;;;;15.67;10.20;;;7.80;99.90;;;;;;5088814;28;20394;-78
2022/04/30 00:27:31;;;;;;;14.25;9.77;;;7.80;99.90;;;;;;5089092;28;20441;-78
2022/04/30 00:29:58;;;;;;;14.07;9.80;;;7.80;99.90;;;;;;5088743;28;20413;-78
2022/04/30 00:32:24;;;;;;;16.33;9.93;;;7.80;99.90;;;;;;5088520;28;20414;-77
2022/04/30 00:34:50;;;;;;;14.05;9.73;;;7.80;99.90;;;;;;5087890;28;20421;-78
2022/04/30 00:37:15;;;;;;;16.40;9.73;;;7.80;99.90;;;;;;5088796;28;20485;-78
2022/04/30 00:39:41;;;;;;;17.17;9.73;;;7.80;99.90;;;;;;5089550;28;21260;-78
2022/04/30 00:42:11;;;;;;;15.75;9.30;;;7.80;99.90;;;;;;5087577;28;20420;-78
2022/04/30 00:44:37;;;;;;;12.87;9.33;;;7.80;99.90;;;;;;5087550;28;20978;-78
2022/04/30 00:47:03;;;;;;;14.18;9.10;;;7.80;99.90;;;;;;5105104;28;20566;-78
2022/04/30 00:49:28;;;;;;;13.77;9.23;;;7.80;99.90;;;;;;5088466;28;20830;-77
2022/04/30 00:51:58;;;;;;;13.68;8.73;;;7.80;99.90;;;;;;5088457;28;20398;-78
2022/04/30 00:54:26;;;;;;;12.70;8.77;;;7.80;99.90;;;;;;5088470;28;20402;-78
2022/04/30 00:56:56;;;;;;;13.48;9.00;;;7.80;99.90;;;;;;5088527;28;20438;-78
2022/04/30 00:59:24;;;;;;;14.10;8.77;;;7.70;99.90;;;;;;5088567;28;20425;-78
2022/04/30 01:01:50;;;;;;;13.40;8.77;;;7.70;99.90;;;;;;5087161;28;20404;-78
2022/04/30 01:04:18;;;;;;;15.33;8.60;;;7.70;99.90;;;;;;5088313;28;20405;-78
2022/04/30 01:06:52;;;;;;;13.82;8.85;;;7.70;99.90;;;;;;5088273;28;20466;-78
2022/04/30 01:09:21;;;;;;;13.82;8.90;;;7.70;99.90;;;;;;5043559;28;20445;-76
2022/04/30 01:11:56;;;;;;;14.63;8.95;;;7.70;99.90;;;;;;5003819;28;20476;-76
2022/04/30 01:14:22;;;;;;;13.35;9.05;;;7.70;99.90;;;;;;5005053;28;20991;-77
2022/04/30 01:16:49;;;;;;;14.15;8.70;;;7.70;99.90;;;;;;5004207;28;20409;-76
2022/04/30 01:19:19;;;;;;;14.93;8.77;;;7.70;99.90;;;;;;5005184;28;20443;-76
2022/04/30 01:21:50;;;;;;;13.23;8.90;;;7.70;99.90;;;;;;5005473;28;20413;-76
2022/04/30 01:24:19;;;;;;;13.15;8.27;;;7.70;99.90;;;;;;5003999;28;20421;-76
2022/04/30 01:26:45;;;;;;;13.93;8.70;;;7.70;99.90;;;;;;5005206;28;20405;-76
2022/04/30 01:29:11;;;;;;;12.68;8.32;;;7.70;99.90;;;;;;5005176;28;20405;-77
2022/04/30 01:37:25;;;;;;;13.73;7.68;;;7.60;99.90;;;;;;5042060;28;20414;-76
2022/04/30 01:40:20;;;;;;;12.82;7.03;;;7.60;99.90;;;;;;5005983;28;20850;-77
2022/04/30 01:42:47;;;;;;;11.82;7.43;;;7.60;99.90;;;;;;5018172;28;20988;-76
2022/04/30 01:45:14;;;;;;;13.68;7.72;;;7.60;99.90;;;;;;5004372;28;20901;-76
2022/04/30 01:47:43;;;;;;;10.88;6.80;;;7.70;99.90;;;;;;5004933;28;20413;-76
2022/04/30 01:50:09;;;;;;;11.90;6.43;;;7.70;99.90;;;;;;5005775;28;20410;-76
2022/04/30 01:52:35;;;;;;;11.00;7.05;;;7.70;99.90;;;;;;5005669;28;20416;-75
2022/04/30 01:55:02;;;;;;;13.98;7.10;;;7.60;99.90;;;;;;4988140;28;20413;-76
2022/04/30 01:57:28;;;;;;;12.55;7.00;;;7.70;99.90;;;;;;5005572;28;20440;-76
2022/04/30 01:59:58;;;;;;;11.03;6.80;;;7.60;99.90;;;;;;5004599;28;20871;-76
2022/04/30 02:02:27;;;;;;;13.10;7.25;;;7.60;99.90;;;;;;5005571;28;20477;-75
2022/04/30 02:04:57;;;;;;;12.82;6.60;;;7.60;99.90;;;;;;5004410;28;20423;-76
2022/04/30 02:07:25;;;;;;;10.30;7.13;;;7.60;99.90;;;;;;5004044;28;20409;-76
2022/04/30 02:09:51;;;;;;;9.23;6.63;;;7.60;99.90;;;;;;5009173;28;21364;-76
2022/04/30 02:12:18;;;;;;;11.87;6.97;;;7.60;99.90;;;;;;4985652;28;20538;-77
2022/04/30 02:14:50;;;;;;;12.63;6.90;;;7.60;99.90;;;;;;4993351;28;20488;-77
2022/04/30 02:17:18;;;;;;;13.05;7.10;;;7.60;99.90;;;;;;5005299;28;20428;-77
2022/04/30 02:22:30;;;;;;;9.95;6.82;;;7.60;99.90;;;;;;5086430;28;20414;-77
2022/04/30 02:24:58;;;;;;;11.10;7.38;;;7.60;99.90;;;;;;5087870;28;20440;-77
2022/04/30 02:27:25;;;;;;;12.35;7.30;;;7.60;99.90;;;;;;5059269;28;21342;-77
2022/04/30 02:29:51;;;;;;;11.20;6.63;;;7.60;99.90;;;;;;5004159;28;20972;-77
2022/04/30 02:32:17;;;;;;;11.75;6.60;;;7.60;99.90;;;;;;5004004;28;20409;-77
2022/04/30 02:34:43;;;;;;;8.38;6.10;;;7.50;99.90;;;;;;4992968;28;20431;-77
2022/04/30 02:37:13;;;;;;;8.73;6.40;;;7.50;99.90;;;;;;5045581;28;20487;-77
2022/04/30 02:39:39;;;;;;;10.85;6.47;;;7.60;99.90;;;;;;5033172;28;20433;-77
2022/04/30 02:42:04;;;;;;;10.97;6.97;;;7.50;99.90;;;;;;4987495;28;20434;-77
2022/04/30 02:44:31;;;;;;;11.55;7.22;;;7.50;99.90;;;;;;5078572;28;20467;-77
2022/04/30 02:46:56;;;;;;;8.18;6.15;;;7.50;99.90;;;;;;5008627;28;21423;-77
2022/04/30 02:49:22;;;;;;;13.63;6.85;;;7.50;99.90;;;;;;4966232;28;20413;-77
2022/04/30 02:51:49;;;;;;;10.70;6.67;;;7.50;99.90;;;;;;4980843;28;20420;-77
2022/04/30 02:54:15;;;;;;;11.20;6.60;;;7.40;99.90;;;;;;5003834;28;20413;-77
2022/04/30 02:56:41;;;;;;;10.45;6.63;;;7.40;99.90;;;;;;5003625;28;20862;-77
2022/04/30 03:01:51;;;;;;;11.40;6.72;;;7.40;99.90;;;;;;5007241;28;20417;-77
2022/04/30 03:04:17;;;;;;;12.57;6.80;;;7.40;99.90;;;;;;5006979;28;21273;-77
2022/04/30 03:06:46;;;;;;;8.55;6.53;;;7.30;99.90;;;;;;5008302;28;20401;-77
2022/04/30 03:09:12;;;;;;;9.32;6.43;;;7.30;99.90;;;;;;5050817;28;20458;-76
2022/04/30 03:11:38;;;;;;;10.80;6.55;;;7.30;99.90;;;;;;5089944;28;21200;-76
2022/04/30 03:14:04;;;;;;;12.18;6.68;;;7.30;99.90;;;;;;5091022;28;20409;-77
2022/04/30 03:22:00;;;;;;;9.48;6.63;;;7.30;99.90;;;;;;5090980;28;20397;-77
2022/04/30 03:24:29;;;;;;;10.90;6.97;;;7.30;99.90;;;;;;5090880;28;20397;-77
2022/04/30 03:26:54;;;;;;;10.23;6.78;;;7.30;99.90;;;;;;5091089;28;20901;-76
2022/04/30 03:29:20;;;;;;;8.88;6.78;;;7.30;99.90;;;;;;5091231;28;20406;-77
2022/04/30 03:31:47;;;;;;;9.57;7.15;;;7.30;99.90;;;;;;5091126;28;20826;-77
2022/04/30 03:34:14;;;;;;;11.73;7.18;;;7.30;99.90;;;;;;5089467;28;20401;-77
2022/04/30 03:36:40;;;;;;;9.48;6.85;;;7.30;99.90;;;;;;5089537;28;20416;-76
2022/04/30 03:39:06;;;;;;;12.65;7.45;;;7.20;99.90;;;;;;5089945;28;20422;-77
2022/04/30 03:41:32;;;;;;;12.40;7.30;;;7.20;99.90;;;;;;5090211;28;20455;-76
2022/04/30 03:43:58;;;;;;;9.68;6.63;;;7.20;99.90;;;;;;5023549;28;20413;-77
2022/04/30 03:46:23;;;;;;;9.90;7.07;;;7.20;99.90;;;;;;5006742;28;20417;-77
2022/04/30 03:48:53;;;;;;;12.63;7.35;;;7.20;99.90;;;;;;5005322;28;20401;-77
2022/04/30 03:51:23;;;;;;;12.87;7.43;;;7.20;99.90;;;;;;5006380;28;20412;-76
2022/04/30 03:53:49;;;;;;;7.80;7.03;;;7.20;99.90;;;;;;5007556;28;20770;-77
2022/04/30 03:56:19;;;;;;;11.77;7.05;;;7.20;99.90;;;;;;5008128;28;20405;-76
2022/04/30 03:58:47;;;;;;;10.52;7.93;;;7.10;99.90;;;;;;5007354;28;20462;-76
2022/04/30 04:01:18;;;;;;;10.50;7.50;;;7.20;99.90;;;;;;5005873;28;20488;-76
2022/04/30 04:03:44;;;;;;;10.80;7.30;;;7.20;99.90;;;;;;5005993;28;20417;-77
2022/04/30 04:06:10;;;;;;;10.13;6.93;;;7.10;99.90;;;;;;5006190;28;20849;-76
2022/04/30 04:08:36;;;;;;;10.00;6.80;;;7.20;99.90;;;;;;5007095;28;20412;-77
2022/04/30 04:11:03;;;;;;;10.07;6.93;;;7.10;99.90;;;;;;5006019;28;20406;-77
2022/04/30 04:18:57;;;;;;;9.23;6.57;;;7.10;99.90;;;;;;5059273;28;20499;-76
2022/04/30 04:21:23;;;;;;;9.30;5.97;;;7.20;99.90;;;;;;4987576;28;20824;-77
2022/04/30 04:26:33;;;;;;;10.48;7.20;;;7.20;99.90;;;;;;5088803;28;20410;-76
2022/04/30 04:28:59;;;;;;;9.25;7.00;;;7.20;99.90;;;;;;5088665;28;20982;-77
2022/04/30 04:31:25;;;;;;;10.10;6.82;;;7.20;99.90;;;;;;5089111;28;20402;-76
2022/04/30 04:33:51;;;;;;;10.20;6.83;;;7.20;99.90;;;;;;5089560;28;20397;-77
2022/04/30 04:36:17;;;;;;;10.47;7.33;;;7.20;99.90;;;;;;5088392;28;20406;-77
2022/04/30 04:38:43;;;;;;;10.15;7.57;;;7.20;99.90;;;;;;5089606;28;20452;-77
2022/04/30 04:41:09;;;;;;;9.43;7.30;;;7.20;99.90;;;;;;5088634;28;20402;-77
2022/04/30 04:43:34;;;;;;;13.37;7.53;;;7.20;99.90;;;;;;5105387;28;20489;-77
2022/04/30 04:46:02;;;;;;;10.93;7.35;;;7.20;99.90;;;;;;5089043;28;20429;-77
2022/04/30 04:48:28;;;;;;;10.68;7.38;;;7.20;99.90;;;;;;5088512;28;20467;-78
2022/04/30 04:50:54;;;;;;;11.15;7.20;;;7.20;99.90;;;;;;5088279;28;20409;-77
2022/04/30 04:53:19;;;;;;;10.93;7.75;;;7.30;99.90;;;;;;5088116;28;21460;-78
2022/04/30 04:55:45;;;;;;;9.90;7.00;;;7.30;99.90;;;;;;5088547;28;20414;-78
2022/04/30 04:58:11;;;;;;;10.90;7.27;;;7.30;99.90;;;;;;5089271;28;20390;-78
2022/04/30 05:00:36;;;;;;;11.07;7.28;;;7.30;99.90;;;;;;5089338;28;20932;-78
2022/04/30 05:03:02;;;;;;;9.47;7.07;;;7.30;99.90;;;;;;5088977;28;20494;-78
2022/04/30 05:05:28;;;;;;;10.68;7.45;;;7.40;99.90;;;;;;5088059;28;20394;-77
2022/04/30 05:07:54;;;;;;;11.27;7.60;;;7.40;99.90;;;;;;5089442;28;20454;-77
2022/04/30 05:10:19;;;;;;;10.90;7.57;;;7.40;99.90;;;;;;5089055;28;20446;-77
2022/04/30 05:12:46;;;;;;;10.67;7.10;;;7.50;99.90;;;;;;5087617;28;20414;-77
2022/04/30 05:15:12;;;;;;;12.07;7.17;;;7.50;99.90;;;;;;5089378;28;20409;-77
2022/04/30 05:17:38;;;;;;;9.75;7.20;;;7.50;99.90;;;;;;5071057;28;20410;-77
2022/04/30 05:20:05;;;;;;;13.37;7.50;;;7.60;99.90;;;;;;5089038;28;20449;-77
2022/04/30 05:22:31;;;;;;;10.38;7.07;;;7.60;99.90;;;;;;5076367;28;20394;-78
2022/04/30 05:24:56;;;;;;;8.93;6.68;;;7.60;99.90;;;;;;4985279;28;20410;-77
2022/04/30 05:27:22;;;;;;;9.90;7.43;;;7.60;99.90;;;;;;4985394;28;20496;-77
2022/04/30 05:29:47;;;;;;;9.23;7.30;;;7.70;99.90;;;;;;4986451;28;20494;-77
2022/04/30 05:32:13;;;;;;;10.77;6.65;;;7.60;99.90;;;;;;5003159;28;20417;-77
2022/04/30 05:34:39;;;;;;;9.20;6.97;;;7.70;99.90;;;;;;4999185;28;20496;-77
2022/04/30 05:37:05;;;;;;;9.27;7.20;;;7.70;99.90;;;;;;5033821;28;20475;-78
2022/04/30 05:39:31;;;;;;;10.52;7.30;;;7.70;99.90;;;;;;5087722;28;20518;-78
2022/04/30 05:41:56;;;;;;;12.07;7.20;;;7.70;99.90;;;;;;5013931;28;20415;-78
2022/04/30 05:44:22;;;;;;;10.07;6.83;;;7.70;99.90;;;;;;4986617;28;20403;-77
2022/04/30 05:46:48;;;;;;;12.25;7.50;;;7.80;99.90;;;;;;4986006;28;20410;-77
2022/04/30 05:49:14;;;;;;;9.30;6.93;;;7.80;99.90;;;;;;5006582;28;20818;-78
2022/04/30 05:51:39;;;;;;;10.33;7.13;;;7.70;99.90;;;;;;5087105;28;20501;-78
2022/04/30 05:54:05;;;;;;;10.70;8.00;;;7.70;99.90;;;;;;5088173;28;20922;-77
2022/04/30 05:56:30;;;;;;;11.47;7.57;;;7.80;99.90;;;;;;5087330;28;20429;-77
2022/04/30 05:58:56;;;;;;;11.30;7.53;;;7.80;99.90;;;;;;5070071;28;20413;-77
2022/04/30 06:01:22;;;;;;;10.52;7.88;;;7.80;99.90;;;;;;5088579;28;20402;-77
2022/04/30 06:03:47;;;;;;;12.63;7.73;;;7.80;99.90;;;;;;5088218;28;20397;-77
2022/04/30 06:06:13;;;;;;;11.70;8.57;;;7.80;99.90;;;;;;5069866;28;20413;-78
2022/04/30 06:08:38;;;;;;;10.93;7.20;;;7.80;99.90;;;;;;4985065;28;20904;-77
2022/04/30 06:11:04;;;;;;;12.87;7.50;;;7.90;99.90;;;;;;4986055;28;20487;-77
2022/04/30 06:13:30;;;;;;;13.03;7.60;;;7.90;99.90;;;;;;4985456;28;20418;-77
2022/04/30 06:15:55;;;;;;;12.18;7.53;;;7.90;99.90;;;;;;5086830;28;20464;-77
2022/04/30 06:18:21;;;;;;;10.73;7.63;;;8.00;99.90;;;;;;4968043;28;20415;-77
2022/04/30 06:20:47;;;;;;;10.20;7.65;;;8.00;99.90;;;;;;4985057;28;20438;-77
2022/04/30 06:23:16;;;;;;;10.90;8.13;;;8.10;99.90;;;;;;4985819;28;20434;-77
2022/04/30 06:25:45;;;;;;;10.80;7.47;;;8.10;99.90;;;;;;4985907;28;20803;-77
2022/04/30 06:28:12;;;;;;;11.52;8.00;;;8.20;99.90;;;;;;4985747;28;20398;-78
2022/04/30 06:30:39;;;;;;;14.10;7.67;;;8.30;99.90;;;;;;4985623;28;20418;-77
2022/04/30 06:33:05;;;;;;;11.10;7.50;;;8.40;99.90;;;;;;4984609;28;20418;-77
2022/04/30 06:35:30;;;;;;;10.73;7.33;;;8.50;99.90;;;;;;4985554;28;20406;-77
2022/04/30 06:37:56;;;;;;;11.05;7.55;;;8.50;99.90;;;;;;4968479;28;20508;-77
2022/04/30 06:40:22;;;;;;;9.63;7.45;;;8.60;99.90;;;;;;4985926;28;20437;-77
2022/04/30 06:42:47;;;;;;;12.20;6.80;;;8.70;99.90;;;;;;5086297;28;20919;-77
2022/04/30 06:45:14;;;;;;;11.55;7.28;;;8.80;99.90;;;;;;5087199;28;20745;-77
2022/04/30 06:47:40;;;;;;;11.70;7.05;;;8.90;99.90;;;;;;5086437;28;20406;-77
2022/04/30 06:50:07;;;;;;;10.88;7.28;;;9.00;99.90;;;;;;5086885;28;21466;-77
2022/04/30 06:52:33;;;;;;;9.25;6.57;;;9.10;99.90;;;;;;5085234;28;20406;-78
2022/04/30 06:57:45;;;;;;;10.10;5.97;;;9.20;99.90;;;;;;5086708;28;20692;-77
2022/04/30 07:02:55;;;;;;;9.82;5.93;;;9.50;99.90;;;;;;5086514;28;20410;-77
2022/04/30 07:05:22;;;;;;;8.93;5.70;;;9.60;99.90;;;;;;5085820;28;20417;-77
2022/04/30 07:07:47;;;;;;;9.40;6.20;;;9.70;99.90;;;;;;5028071;28;20502;-77
2022/04/30 07:10:13;;;;;;;7.47;4.63;;;9.90;99.90;;;;;;4980633;28;20415;-78
2022/04/30 07:12:38;;;;;;;7.72;4.60;;;10.00;99.90;;;;;;4982301;28;20419;-78
2022/04/30 07:15:05;;;;;;;6.90;4.10;;;10.20;99.90;;;;;;4983300;28;20822;-77
2022/04/30 07:17:30;;;;;;;8.60;4.70;;;10.40;99.90;;;;;;5001401;28;20409;-78
2022/04/30 07:19:56;;;;;;;7.25;4.00;;;10.50;99.90;;;;;;5002183;28;20490;-78
2022/04/30 07:22:21;;;;;;;5.33;3.03;;;10.70;99.90;;;;;;5025684;28;20859;-78
2022/04/30 07:24:47;;;;;;;4.97;2.90;;;10.80;99.90;;;;;;4982322;28;20499;-79
2022/04/30 07:27:12;;;;;;;6.47;3.60;;;10.90;99.90;;;;;;4983961;28;20814;-79
2022/04/30 07:29:38;;;;;;;8.07;4.40;;;10.80;99.90;;;;;;4984166;28;20421;-79
2022/04/30 07:32:07;;;;;;;6.30;2.60;;;10.90;99.90;;;;;;4982819;28;20460;-79
2022/04/30 07:34:34;;;;;;;5.70;2.70;;;10.90;99.90;;;;;;4983991;28;20489;-78
2022/04/30 07:37:00;;;;;;;6.40;2.75;;;10.90;99.90;;;;;;4965974;28;20414;-79
2022/04/30 07:39:25;;;;;;;5.40;2.47;;;10.80;99.90;;;;;;4982749;28;20800;-79
2022/04/30 07:41:53;;;;;;;5.70;2.50;;;10.90;99.90;;;;;;5064248;28;20830;-79
2022/04/30 07:44:19;;;;;;;5.50;2.50;;;10.90;99.90;;;;;;5084904;28;20409;-79
2022/04/30 07:46:45;;;;;;;5.30;2.58;;;10.90;99.90;;;;;;5088747;28;20406;-79
2022/04/30 07:49:10;;;;;;;5.53;2.63;;;10.90;99.90;;;;;;5088774;28;20421;-79
2022/04/30 07:51:42;;;;;;;5.82;2.50;;;10.90;99.90;;;;;;5071073;28;20445;-79
2022/04/30 07:54:08;;;;;;;5.15;2.70;;;10.90;99.90;;;;;;5089916;28;20409;-79
2022/04/30 07:56:34;;;;;;;5.93;2.47;;;11.00;99.90;;;;;;5071932;28;20443;-79
2022/04/30 07:59:00;;;;;;;6.23;2.83;;;11.00;99.90;;;;;;5090114;28;20398;-79
2022/04/30 08:01:25;;;;;;;4.40;2.17;;;11.00;99.90;;;;;;5089459;28;20406;-79
2022/04/30 08:03:51;;;;;;;6.20;2.50;;;11.10;99.90;;;;;;5089068;28;20405;-79
2022/04/30 08:06:16;;;;;;;7.78;2.70;;;11.10;99.90;;;;;;5090641;28;20578;-79
2022/04/30 08:08:42;;;;;;;5.67;2.30;;;11.10;99.90;;;;;;5089022;28;20402;-79
2022/04/30 08:11:08;;;;;;;7.20;2.63;;;11.20;99.90;;;;;;5089207;28;20398;-79
2022/04/30 08:13:33;;;;;;;5.03;2.43;;;11.30;99.90;;;;;;5089846;28;20489;-79
2022/04/30 08:15:59;;;;;;;5.75;2.60;;;11.40;99.90;;;;;;5071852;28;20406;-79
2022/04/30 08:18:26;;;;;;;5.10;2.30;;;11.50;99.90;;;;;;5071876;28;20402;-79
2022/04/30 08:20:52;;;;;;;6.22;2.60;;;11.60;99.90;;;;;;5089292;28;20764;-79
2022/04/30 08:23:18;;;;;;;5.37;2.10;;;11.70;99.90;;;;;;5106471;28;20460;-79
2022/04/30 08:25:44;;;;;;;4.93;2.38;;;11.70;99.90;;;;;;5089791;28;20394;-79
2022/04/30 08:28:10;;;;;;;6.03;2.60;;;11.80;99.90;;;;;;5071962;28;20414;-79
2022/04/30 08:30:35;;;;;;;6.53;2.47;;;11.90;99.90;;;;;;5089214;28;20417;-79
2022/04/30 08:33:01;;;;;;;5.90;2.63;;;11.90;99.90;;;;;;5089931;28;20405;-79
2022/04/30 08:35:27;;;;;;;6.75;2.47;;;11.90;99.90;;;;;;5088459;28;21013;-79
2022/04/30 08:37:53;;;;;;;5.00;2.30;;;12.00;99.90;;;;;;5054725;28;20426;-79
2022/04/30 08:40:18;;;;;;;5.20;2.35;;;12.00;99.90;;;;;;5037826;28;20429;-79
2022/04/30 08:42:45;;;;;;;6.30;2.20;;;12.00;99.90;;;;;;5003106;28;20543;-79
2022/04/30 08:45:11;;;;;;;4.60;2.47;;;12.00;99.90;;;;;;5088417;28;20931;-79
2022/04/30 08:47:42;;;;;;;4.97;2.85;;;12.10;99.90;;;;;;5046533;28;20501;-79
2022/04/30 08:50:12;;;;;;;4.15;2.67;;;12.10;99.90;;;;;;5087769;28;20505;-79
2022/04/30 08:52:38;;;;;;;4.57;2.47;;;12.20;99.90;;;;;;4985879;28;20486;-79
2022/04/30 08:55:05;;;;;;;3.83;2.28;;;12.20;99.90;;;;;;4985956;28;20603;-79
2022/04/30 08:57:31;;;;;;;6.40;2.55;;;12.20;99.90;;;;;;5088130;28;20390;-79
2022/04/30 08:59:58;;;;;;;6.68;2.63;;;12.10;99.90;;;;;;5088629;28;21035;-78
2022/04/30 09:02:24;;;;;;;6.90;2.83;;;12.10;99.90;;;;;;5088363;28;20771;-79
2022/04/30 09:04:50;;;;;;;5.43;2.40;;;12.00;99.90;;;;;;5088064;28;20398;-79
2022/04/30 09:07:21;;;;;;;4.78;2.53;;;11.90;99.90;;;;;;5088118;28;20401;-79
2022/04/30 09:09:57;;;;;;;4.45;2.40;;;11.90;99.90;;;;;;5087742;28;20405;-79
2022/04/30 09:12:24;;;;;;;6.82;2.60;;;11.80;99.90;;;;;;5079933;28;20444;-79
2022/04/30 09:14:50;;;;;;;4.07;2.33;;;11.80;99.90;;;;;;4985673;28;20490;-78
2022/04/30 09:17:16;;;;;;;5.00;2.40;;;11.80;99.90;;;;;;4985619;28;20490;-79
2022/04/30 09:19:50;;;;;;;4.23;2.43;;;11.80;99.90;;;;;;4985788;28;20467;-79
2022/04/30 09:22:16;;;;;;;4.70;2.38;;;11.90;99.90;;;;;;4985967;28;20419;-79
2022/04/30 09:24:50;;;;;;;6.72;2.72;;;11.90;99.90;;;;;;4985765;28;20411;-78
2022/04/30 09:27:16;;;;;;;4.75;2.35;;;12.00;99.90;;;;;;4985545;28;20411;-79
2022/04/30 09:29:42;;;;;;;7.53;2.80;;;12.00;99.90;;;;;;4984575;28;20527;-79
2022/04/30 09:32:14;;;;;;;7.55;2.83;;;12.10;99.90;;;;;;4986504;28;20406;-79
2022/04/30 09:37:42;;;;;;;5.72;2.30;;;12.20;99.90;;;;;;4986454;28;20411;-79
2022/04/30 09:40:14;;;;;;;5.63;2.17;;;12.30;99.90;;;;;;4986047;28;20496;-79
2022/04/30 09:42:40;;;;;;;6.47;2.30;;;12.30;99.90;;;;;;4986244;28;20973;-79
2022/04/30 09:45:07;;;;;;;4.95;2.10;;;12.30;99.90;;;;;;4986363;28;20992;-79
2022/04/30 09:47:33;;;;;;;5.13;2.40;;;12.40;99.90;;;;;;5037927;28;20423;-79
2022/04/30 09:55:56;;;;;;;4.72;2.10;;;12.50;99.90;;;;;;5064696;28;20976;-79
2022/04/30 09:58:26;;;;;;;4.35;2.10;;;12.70;99.90;;;;;;5088078;28;20394;-79
2022/04/30 10:00:57;;;;;;;4.53;2.60;;;12.80;99.90;;;;;;5088126;28;20422;-79
2022/04/30 10:03:29;;;;;;;5.80;2.25;;;12.90;99.90;;;;;;5070402;28;20410;-79
2022/04/30 10:05:58;;;;;;;4.55;2.30;;;13.00;99.90;;;;;;5088620;28;20405;-79
2022/04/30 10:08:24;;;;;;;4.35;2.28;;;13.10;99.90;;;;;;5087716;28;20398;-79
2022/04/30 10:10:57;;;;;;;6.28;2.30;;;13.20;99.90;;;;;;5086259;28;20895;-79
2022/04/30 10:13:33;;;;;;;5.20;2.15;;;13.20;99.90;;;;;;5087984;28;20416;-79
2022/04/30 10:16:02;;;;;;;4.90;2.22;;;13.20;99.90;;;;;;5087827;28;20418;-79
2022/04/30 10:18:43;;;;;;;3.85;2.22;;;13.30;99.90;;;;;;5086889;28;20410;-79
2022/04/30 10:21:19;;;;;;;6.38;3.10;;;13.30;99.90;;;;;;5087776;28;20433;-79
2022/04/30 10:23:45;;;;;;;5.03;2.40;;;13.30;99.90;;;;;;5070162;28;20878;-79
2022/04/30 10:26:11;;;;;;;5.10;2.20;;;13.20;99.90;;;;;;5086533;28;20768;-79
2022/04/30 10:28:37;;;;;;;5.38;2.50;;;13.30;99.90;;;;;;5087007;28;20429;-79
2022/04/30 10:31:09;;;;;;;4.40;2.13;;;13.30;99.90;;;;;;5086892;28;20475;-79
2022/04/30 10:33:46;;;;;;;5.95;2.10;;;13.30;99.90;;;;;;5086903;28;20414;-79
2022/04/30 10:36:12;;;;;;;4.38;2.28;;;13.30;99.90;;;;;;5085540;28;20437;-79
2022/04/30 10:38:38;;;;;;;4.38;2.20;;;13.30;99.90;;;;;;5085520;28;20970;-79
2022/04/30 10:41:08;;;;;;;4.53;2.25;;;13.30;99.90;;;;;;5086674;28;20428;-79
2022/04/30 10:43:37;;;;;;;5.18;2.30;;;13.30;99.70;;;;;;5086537;28;20805;-79
2022/04/30 10:46:14;;;;;;;3.25;2.05;;;13.20;99.50;;;;;;5085186;28;21138;-79
2022/04/30 10:48:40;;;;;;;4.88;2.70;;;13.00;99.80;;;;;;4986523;28;20418;-79
2022/04/30 10:51:07;;;;;;;4.80;2.57;;;12.90;99.90;;;;;;4984408;28;20518;-79
2022/04/30 10:53:35;;;;;;;5.13;2.72;;;12.90;99.90;;;;;;4983236;28;20501;-79
2022/04/30 10:56:02;;;;;;;5.80;2.67;;;12.80;99.90;;;;;;4983447;28;20472;-79
2022/04/30 10:58:30;;;;;;;5.97;2.88;;;12.80;99.90;;;;;;4984498;28;20411;-79
2022/04/30 11:00:56;;;;;;;5.22;2.65;;;12.70;99.90;;;;;;4984236;28;20983;-79
2022/04/30 11:03:30;;;;;;;4.03;2.20;;;12.60;99.90;;;;;;4984849;28;20411;-79
2022/04/30 11:05:56;;;;;;;4.95;2.58;;;12.60;99.80;;;;;;4983016;28;20421;-79
2022/04/30 11:08:22;;;;;;;4.45;2.40;;;12.60;99.90;;;;;;4983357;28;20420;-79
2022/04/30 11:10:52;;;;;;;4.70;2.80;;;12.60;99.90;;;;;;4984000;28;20418;-79
2022/04/30 11:13:18;;;;;;;4.37;3.07;;;12.60;99.90;;;;;;4984373;28;20422;-79
2022/04/30 11:15:44;;;;;;;4.83;2.97;;;12.70;99.90;;;;;;4982593;28;20897;-79
2022/04/30 11:18:10;;;;;;;5.50;2.83;;;12.80;99.90;;;;;;4984075;28;20407;-79
2022/04/30 11:20:36;;;;;;;4.88;2.60;;;12.90;99.90;;;;;;4987444;28;20808;-79
2022/04/30 11:23:01;;;;;;;3.90;1.80;;;13.00;99.90;;;;;;4987485;28;20447;-79
2022/04/30 11:25:38;;;;;;;4.72;2.50;;;13.10;99.30;;;;;;4987285;28;20491;-78
2022/04/30 11:28:08;;;;;;;4.97;2.27;;;13.20;99.40;;;;;;4987411;28;20410;-79
2022/04/30 11:30:38;;;;;;;5.70;2.28;;;13.30;99.80;;;;;;4987393;28;20417;-79
2022/04/30 11:33:07;;;;;;;4.60;2.30;;;13.40;99.70;;;;;;4987440;28;20415;-79
2022/04/30 11:35:33;;;;;;;4.90;2.70;;;13.50;99.40;;;;;;4986073;28;20838;-79
2022/04/30 11:37:59;;;;;;;9.63;2.53;;;13.50;99.70;;;;;;4986988;28;20417;-79
2022/04/30 11:40:26;;;;;;;5.35;2.10;;;13.60;98.80;;;;;;4987573;28;20516;-79
2022/04/30 11:42:59;;;;;;;4.90;2.58;;;13.60;98.80;;;;;;4985777;28;20421;-79
2022/04/30 11:45:28;;;;;;;7.55;2.50;;;13.80;98.90;;;;;;4986012;28;20791;-78
2022/04/30 11:47:55;;;;;;;4.45;2.25;;;13.90;99.20;;;;;;5053968;28;20816;-79
2022/04/30 11:50:21;;;;;;;9.07;2.53;;;14.00;98.80;;;;;;5088478;28;20486;-79
2022/04/30 11:52:47;;;;;;;4.43;2.10;;;14.00;98.60;;;;;;5089882;28;20401;-79
2022/04/30 11:55:13;;;;;;;5.82;2.40;;;14.10;98.70;;;;;;5089787;28;20481;-79
2022/04/30 11:57:43;;;;;;;4.80;2.17;;;14.00;98.10;;;;;;5071766;28;20418;-79
2022/04/30 12:00:11;;;;;;;4.63;2.00;;;14.00;97.20;;;;;;5089802;28;20425;-79
2022/04/30 12:02:39;;;;;;;3.60;2.03;;;14.00;97.00;;;;;;5090557;28;20429;-79
2022/04/30 12:05:06;;;;;;;5.95;2.40;;;13.90;96.70;;;;;;5090444;28;20394;-79
2022/04/30 12:07:41;;;;;;;4.30;2.20;;;13.80;97.10;;;;;;5090517;28;20410;-79
2022/04/30 12:10:19;;;;;;;6.03;2.50;;;13.80;97.50;;;;;;5089130;28;20448;-79
2022/04/30 12:12:46;;;;;;;4.25;2.30;;;13.80;98.00;;;;;;5088812;28;20410;-79
2022/04/30 12:15:25;;;;;;;6.20;2.57;;;13.80;98.00;;;;;;5090131;28;20402;-79
2022/04/30 12:26:40;;;;;;;3.58;2.08;;;13.90;96.90;;;;;;5089672;28;20402;-79
2022/04/30 12:29:20;;;;;;;4.45;2.08;;;13.80;97.00;;;;;;5088790;28;20887;-79
2022/04/30 12:31:47;;;;;;;4.03;1.95;;;13.80;97.00;;;;;;5088838;28;20401;-79
2022/04/30 12:34:27;;;;;;;3.65;1.67;;;13.70;96.90;;;;;;5090204;28;20452;-79
2022/04/30 12:37:00;;;;;;;4.47;1.77;;;13.70;97.20;;;;;;5088032;28;20914;-79
2022/04/30 12:39:26;;;;;;;3.38;2.05;;;13.80;96.80;;;;;;5088299;28;20426;-79
2022/04/30 12:41:53;;;;;;;3.73;1.87;;;13.80;96.60;;;;;;5089663;28;20394;-79
2022/04/30 12:44:22;;;;;;;4.85;2.05;;;13.80;96.80;;;;;;5088532;28;20441;-79
2022/04/30 12:46:49;;;;;;;3.77;1.90;;;13.80;95.90;;;;;;5069848;28;20882;-79
2022/04/30 12:49:15;;;;;;;5.40;2.03;;;13.80;96.50;;;;;;4987390;28;20402;-79
2022/04/30 12:51:42;;;;;;;4.97;2.38;;;13.80;96.60;;;;;;4987414;28;20803;-79
2022/04/30 12:54:12;;;;;;;4.07;2.17;;;13.70;96.40;;;;;;4985882;28;20852;-79
2022/04/30 12:56:43;;;;;;;5.82;2.80;;;13.80;97.10;;;;;;4986590;28;20415;-79
2022/04/30 12:59:09;;;;;;;5.43;2.83;;;13.90;97.70;;;;;;4986707;28;20399;-79
2022/04/30 13:01:37;;;;;;;6.15;2.70;;;13.90;97.80;;;;;;4985668;28;20920;-79
2022/04/30 13:04:03;;;;;;;6.00;3.05;;;13.90;97.50;;;;;;4986657;28;20953;-79
2022/04/30 13:06:30;;;;;;;6.93;3.15;;;13.70;97.70;;;;;;4969639;28;20415;-79
2022/04/30 13:14:27;;;;;;;5.82;2.97;;;13.70;98.40;;;;;;5088173;28;20413;-79
2022/04/30 13:16:53;;;;;;;5.18;3.10;;;13.70;98.30;;;;;;5031617;28;20419;-79
2022/04/30 13:19:19;;;;;;;7.60;3.00;;;13.70;98.40;;;;;;5004463;28;20405;-80
2022/04/30 13:21:48;;;;;;;7.28;3.35;;;13.70;98.30;;;;;;5006211;28;20771;-78
2022/04/30 13:24:15;;;;;;;4.53;2.95;;;13.80;98.20;;;;;;5006458;28;20763;-79
2022/04/30 13:26:41;;;;;;;5.10;2.80;;;13.80;98.20;;;;;;4967190;28;20840;-79
2022/04/30 13:29:11;;;;;;;4.78;2.80;;;13.80;98.00;;;;;;4967213;28;20477;-79
2022/04/30 13:31:41;;;;;;;4.22;2.47;;;13.90;97.90;;;;;;4965732;28;20455;-79
2022/04/30 13:34:07;;;;;;;4.97;2.75;;;14.00;97.50;;;;;;4967292;28;20414;-79
2022/04/30 13:36:35;;;;;;;5.10;3.10;;;14.00;97.30;;;;;;4967395;28;20404;-79
2022/04/30 13:39:01;;;;;;;6.00;2.70;;;14.00;97.40;;;;;;4966751;28;20893;-77
2022/04/30 13:41:27;;;;;;;4.73;2.90;;;13.90;97.00;;;;;;4968853;28;20428;-79